Wetterdaten: aktuell Montag, 25.03.2019 02:45
Datum Zeit Temp. A. Temp. 2 Feuchte A. Luftdruck Regen Wind Richtung Richtung Sonnenschein Windben
25.03.2019 02:45 4,1 C 3,3 C 92 % 1012,8 hPa 0,0 l/m 9,7 km/h (2 Bft) SW 225 0 min 20,9 km/h (4 Bft)
25.03.2019 02:40 4,0 C 3,3 C 92 % 1012,8 hPa 0,2 l/m 9,7 km/h (2 Bft) SW 225 0 min 19,3 km/h (3 Bft)
25.03.2019 02:35 4,0 C 3,3 C 92 % 1013,0 hPa 0,0 l/m 12,9 km/h (3 Bft) SW 225 0 min 25,7 km/h (4 Bft)
25.03.2019 02:30 4,0 C 3,3 C 91 % 1013,1 hPa 0,2 l/m 12,9 km/h (3 Bft) SW 225 0 min 22,5 km/h (4 Bft)
25.03.2019 02:25 4,0 C 3,3 C 91 % 1013,0 hPa 0,0 l/m 12,9 km/h (3 Bft) S-SW 202 0 min 24,1 km/h (4 Bft)
25.03.2019 02:20 4,0 C 3,3 C 91 % 1013,1 hPa 0,0 l/m 11,3 km/h (2 Bft) SW 225 0 min 19,3 km/h (3 Bft)
25.03.2019 02:15 4,0 C 3,3 C 91 % 1013,3 hPa 0,0 l/m 12,9 km/h (3 Bft) SW 225 0 min 20,9 km/h (4 Bft)
25.03.2019 02:10 3,9 C 3,3 C 91 % 1013,4 hPa 0,0 l/m 9,7 km/h (2 Bft) S-SW 202 0 min 19,3 km/h (3 Bft)
25.03.2019 02:05 3,9 C 3,3 C 91 % 1013,5 hPa 0,0 l/m 11,3 km/h (2 Bft) SW 225 0 min 20,9 km/h (4 Bft)
25.03.2019 02:00 4,0 C 3,3 C 90 % 1013,6 hPa 0,0 l/m 9,7 km/h (2 Bft) S-SW 202 0 min 17,7 km/h (3 Bft)
25.03.2019 01:55 4,0 C 3,3 C 90 % 1013,7 hPa 0,2 l/m 9,7 km/h (2 Bft) S-SW 202 0 min 19,3 km/h (3 Bft)
25.03.2019 01:50 4,1 C 3,3 C 89 % 1014,0 hPa 0,0 l/m 8,0 km/h (2 Bft) SW 225 0 min 14,5 km/h (3 Bft)
25.03.2019 01:45 4,1 C 3,3 C 89 % 1014,2 hPa 0,0 l/m 12,9 km/h (3 Bft) SW 225 0 min 20,9 km/h (4 Bft)
25.03.2019 01:40 4,2 C 3,3 C 88 % 1014,3 hPa 0,0 l/m 9,7 km/h (2 Bft) SW 225 0 min 22,5 km/h (4 Bft)
25.03.2019 01:35 4,3 C 3,3 C 88 % 1014,5 hPa 0,0 l/m 11,3 km/h (2 Bft) SW 225 0 min 30,6 km/h (5 Bft)
25.03.2019 01:30 4,3 C 3,3 C 87 % 1014,7 hPa 0,4 l/m 8,0 km/h (2 Bft) SW 225 0 min 16,1 km/h (3 Bft)
25.03.2019 01:25 4,3 C 3,3 C 87 % 1014,8 hPa 0,2 l/m 11,3 km/h (2 Bft) SW 225 0 min 25,7 km/h (4 Bft)
25.03.2019 01:20 4,3 C 3,3 C 87 % 1014,9 hPa 0,0 l/m 9,7 km/h (2 Bft) SW 225 0 min 16,1 km/h (3 Bft)
25.03.2019 01:15 4,3 C 3,3 C 86 % 1014,9 hPa 0,0 l/m 8,0 km/h (2 Bft) SW 225 0 min 20,9 km/h (4 Bft)
25.03.2019 01:10 4,3 C 3,3 C 86 % 1015,1 hPa 0,0 l/m 9,7 km/h (2 Bft) SW 225 0 min 17,7 km/h (3 Bft)
25.03.2019 01:05 4,4 C 3,3 C 86 % 1015,2 hPa 0,0 l/m 9,7 km/h (2 Bft) SW 225 0 min 17,7 km/h (3 Bft)
25.03.2019 01:00 4,3 C 3,9 C 86 % 1015,4 hPa 0,0 l/m 12,9 km/h (3 Bft) SW 225 0 min 22,5 km/h (4 Bft)
25.03.2019 00:55 4,3 C 4,4 C 86 % 1015,5 hPa 0,0 l/m 9,7 km/h (2 Bft) SW 225 0 min 22,5 km/h (4 Bft)
25.03.2019 00:50 4,3 C 3,9 C 86 % 1015,6 hPa 0,0 l/m 11,3 km/h (2 Bft) SW 225 0 min 22,5 km/h (4 Bft)
25.03.2019 00:45 4,3 C 3,9 C 86 % 1015,7 hPa 0,0 l/m 9,7 km/h (2 Bft) SW 225 0 min 19,3 km/h (3 Bft)
25.03.2019 00:40 4,2 C 3,9 C 86 % 1015,9 hPa 0,0 l/m 9,7 km/h (2 Bft) SW 225 0 min 14,5 km/h (3 Bft)
25.03.2019 00:35 4,2 C 4,4 C 87 % 1016,2 hPa 0,0 l/m 9,7 km/h (2 Bft) SW 225 0 min 17,7 km/h (3 Bft)
25.03.2019 00:30 4,1 C 4,4 C 87 % 1016,3 hPa 0,0 l/m 11,3 km/h (2 Bft) SW 225 0 min 19,3 km/h (3 Bft)
25.03.2019 00:25 4,0 C 3,9 C 87 % 1016,3 hPa 0,0 l/m 8,0 km/h (2 Bft) S-SW 202 0 min 19,3 km/h (3 Bft)
25.03.2019 00:20 3,9 C 3,9 C 87 % 1016,5 hPa 0,0 l/m 9,7 km/h (2 Bft) SW 225 0 min 19,3 km/h (3 Bft)
25.03.2019 00:15 3,8 C 3,9 C 87 % 1016,7 hPa 0,0 l/m 8,0 km/h (2 Bft) SW 225 0 min 12,9 km/h (3 Bft)
25.03.2019 00:10 3,8 C 3,3 C 86 % 1016,8 hPa 0,0 l/m 8,0 km/h (2 Bft) SW 225 0 min 14,5 km/h (3 Bft)
25.03.2019 00:05 3,9 C 3,3 C 86 % 1016,8 hPa 0,0 l/m 9,7 km/h (2 Bft) S-SW 202 0 min 17,7 km/h (3 Bft)
25.03.2019 00:00 3,9 C 3,3 C 86 % 1017,0 hPa 0,0 l/m 8,0 km/h (2 Bft) SW 225 0 min 17,7 km/h (3 Bft)
_ Min-Zeit 00:05 00:00 00:00 02:40 - 00:00 - - - 00:15
Minimum _ 3,8 C 3,3 C 86 % 1012,8 hPa - 8,0 km/h (2 Bft) - - - 12,9 km/h (3 Bft)
_ Max-Zeit 01:00 00:30 02:35 00:00 01:30 01:00 - - 00:00 01:35
Maximum _ 4,4 C 4,4 C 92 % 1017,0 hPa 0,4 l/m 12,9 km/h
SW (3 Bft)
- - 0 min 30,6 km/h
S-SW (5 Bft)
Durchschnitt _ 4,1 C 3,5 C 88 % 1014,8 hPa #1,2 l/m 10,2 km/h (2 Bft) SW - #0 min. 19,8 km/h (3 Bft)